sensor_id;sensor_type;location;lat;lon;timestamp;P1;durP1;ratioP1;P2;durP2;ratioP2
16075;SDS011;8142;48.242;11.644;2023-04-25T00:00:06;2.50;;;1.90;;
16075;SDS011;8142;48.242;11.644;2023-04-25T00:02:33;2.63;;;2.37;;
16075;SDS011;8142;48.242;11.644;2023-04-25T00:05:00;2.87;;;2.23;;
16075;SDS011;8142;48.242;11.644;2023-04-25T00:07:28;2.83;;;2.30;;
16075;SDS011;8142;48.242;11.644;2023-04-25T00:09:54;3.07;;;2.40;;
16075;SDS011;8142;48.242;11.644;2023-04-25T00:12:20;2.17;;;1.97;;
16075;SDS011;8142;48.242;11.644;2023-04-25T00:14:48;2.87;;;2.27;;
16075;SDS011;8142;48.242;11.644;2023-04-25T00:17:15;2.57;;;2.17;;
16075;SDS011;8142;48.242;11.644;2023-04-25T00:19:42;2.20;;;2.00;;
16075;SDS011;8142;48.242;11.644;2023-04-25T00:22:10;2.80;;;2.00;;
16075;SDS011;8142;48.242;11.644;2023-04-25T00:24:36;3.90;;;2.00;;
16075;SDS011;8142;48.242;11.644;2023-04-25T00:27:02;4.17;;;2.20;;
16075;SDS011;8142;48.242;11.644;2023-04-25T00:29:27;4.40;;;2.47;;
16075;SDS011;8142;48.242;11.644;2023-04-25T00:31:53;3.63;;;2.33;;
16075;SDS011;8142;48.242;11.644;2023-04-25T00:34:19;2.83;;;1.90;;
16075;SDS011;8142;48.242;11.644;2023-04-25T00:36:45;2.93;;;2.23;;
16075;SDS011;8142;48.242;11.644;2023-04-25T00:39:11;2.00;;;1.90;;
16075;SDS011;8142;48.242;11.644;2023-04-25T00:41:37;2.70;;;2.30;;
16075;SDS011;8142;48.242;11.644;2023-04-25T00:44:04;2.40;;;2.20;;
16075;SDS011;8142;48.242;11.644;2023-04-25T00:46:32;3.40;;;2.10;;
16075;SDS011;8142;48.242;11.644;2023-04-25T00:48:58;4.50;;;2.10;;
16075;SDS011;8142;48.242;11.644;2023-04-25T00:51:23;2.13;;;1.97;;
16075;SDS011;8142;48.242;11.644;2023-04-25T00:53:51;6.03;;;2.00;;
16075;SDS011;8142;48.242;11.644;2023-04-25T00:56:18;2.40;;;2.20;;
16075;SDS011;8142;48.242;11.644;2023-04-25T00:58:45;2.37;;;2.17;;
16075;SDS011;8142;48.242;11.644;2023-04-25T01:01:10;2.53;;;2.33;;
16075;SDS011;8142;48.242;11.644;2023-04-25T01:03:38;2.40;;;2.20;;
16075;SDS011;8142;48.242;11.644;2023-04-25T02:07:09;2.60;;;2.10;;
16075;SDS011;8142;48.242;11.644;2023-04-25T02:09:35;3.80;;;2.20;;
16075;SDS011;8142;48.242;11.644;2023-04-25T02:12:01;2.50;;;2.30;;
16075;SDS011;8142;48.242;11.644;2023-04-25T02:14:27;3.33;;;2.43;;
16075;SDS011;8142;48.242;11.644;2023-04-25T02:16:53;3.07;;;2.23;;
16075;SDS011;8142;48.242;11.644;2023-04-25T02:19:19;3.33;;;2.40;;
16075;SDS011;8142;48.242;11.644;2023-04-25T02:21:45;2.87;;;1.97;;
16075;SDS011;8142;48.242;11.644;2023-04-25T02:24:11;3.43;;;2.40;;
16075;SDS011;8142;48.242;11.644;2023-04-25T02:26:37;3.57;;;2.40;;
16075;SDS011;8142;48.242;11.644;2023-04-25T02:29:03;3.80;;;2.37;;
16075;SDS011;8142;48.242;11.644;2023-04-25T02:31:28;2.30;;;2.10;;
16075;SDS011;8142;48.242;11.644;2023-04-25T02:33:54;2.40;;;2.20;;
16075;SDS011;8142;48.242;11.644;2023-04-25T02:36:20;2.97;;;2.43;;
16075;SDS011;8142;48.242;11.644;2023-04-25T02:38:46;2.93;;;2.30;;
16075;SDS011;8142;48.242;11.644;2023-04-25T02:41:12;6.03;;;2.47;;
16075;SDS011;8142;48.242;11.644;2023-04-25T02:43:38;3.33;;;2.23;;
16075;SDS011;8142;48.242;11.644;2023-04-25T02:46:03;2.87;;;2.10;;
16075;SDS011;8142;48.242;11.644;2023-04-25T02:48:30;3.67;;;2.23;;
16075;SDS011;8142;48.242;11.644;2023-04-25T02:50:56;4.10;;;2.40;;
16075;SDS011;8142;48.242;11.644;2023-04-25T02:53:21;3.30;;;2.30;;
16075;SDS011;8142;48.242;11.644;2023-04-25T02:55:47;4.07;;;2.20;;
16075;SDS011;8142;48.242;11.644;2023-04-25T02:58:13;2.90;;;2.30;;
16075;SDS011;8142;48.242;11.644;2023-04-25T03:00:40;2.70;;;2.03;;
16075;SDS011;8142;48.242;11.644;2023-04-25T03:03:06;7.37;;;2.20;;
16075;SDS011;8142;48.242;11.644;2023-04-25T03:05:32;2.37;;;2.00;;
16075;SDS011;8142;48.242;11.644;2023-04-25T03:07:58;3.93;;;2.30;;
16075;SDS011;8142;48.242;11.644;2023-04-25T03:10:24;2.40;;;2.20;;
16075;SDS011;8142;48.242;11.644;2023-04-25T03:12:49;3.77;;;2.30;;
16075;SDS011;8142;48.242;11.644;2023-04-25T03:15:15;3.20;;;2.40;;
16075;SDS011;8142;48.242;11.644;2023-04-25T03:17:42;3.80;;;2.30;;
16075;SDS011;8142;48.242;11.644;2023-04-25T03:20:07;3.00;;;2.20;;
16075;SDS011;8142;48.242;11.644;2023-04-25T03:22:34;3.40;;;2.50;;
16075;SDS011;8142;48.242;11.644;2023-04-25T03:25:00;2.90;;;2.30;;
16075;SDS011;8142;48.242;11.644;2023-04-25T03:27:25;3.30;;;2.43;;
16075;SDS011;8142;48.242;11.644;2023-04-25T03:29:51;2.60;;;2.40;;
16075;SDS011;8142;48.242;11.644;2023-04-25T03:32:17;2.57;;;2.37;;
16075;SDS011;8142;48.242;11.644;2023-04-25T03:34:43;4.17;;;2.60;;
16075;SDS011;8142;48.242;11.644;2023-04-25T03:37:09;3.97;;;2.50;;
16075;SDS011;8142;48.242;11.644;2023-04-25T03:39:35;3.97;;;2.40;;
16075;SDS011;8142;48.242;11.644;2023-04-25T03:42:00;3.00;;;2.50;;
16075;SDS011;8142;48.242;11.644;2023-04-25T03:44:28;2.43;;;2.23;;
16075;SDS011;8142;48.242;11.644;2023-04-25T03:46:53;3.13;;;2.50;;
16075;SDS011;8142;48.242;11.644;2023-04-25T03:49:19;2.50;;;2.30;;
16075;SDS011;8142;48.242;11.644;2023-04-25T03:51:45;3.60;;;2.60;;
16075;SDS011;8142;48.242;11.644;2023-04-25T03:54:11;2.97;;;2.30;;
16075;SDS011;8142;48.242;11.644;2023-04-25T03:56:37;3.10;;;2.60;;
16075;SDS011;8142;48.242;11.644;2023-04-25T03:59:03;3.70;;;2.30;;
16075;SDS011;8142;48.242;11.644;2023-04-25T04:01:29;3.40;;;2.70;;
16075;SDS011;8142;48.242;11.644;2023-04-25T04:03:55;4.77;;;2.33;;
16075;SDS011;8142;48.242;11.644;2023-04-25T04:06:20;3.73;;;2.40;;
16075;SDS011;8142;48.242;11.644;2023-04-25T04:08:46;3.20;;;2.50;;
16075;SDS011;8142;48.242;11.644;2023-04-25T04:11:12;4.57;;;2.20;;
16075;SDS011;8142;48.242;11.644;2023-04-25T04:13:38;3.80;;;2.10;;
16075;SDS011;8142;48.242;11.644;2023-04-25T04:16:04;2.13;;;1.93;;
16075;SDS011;8142;48.242;11.644;2023-04-25T04:18:30;2.63;;;2.23;;
16075;SDS011;8142;48.242;11.644;2023-04-25T04:20:56;5.27;;;2.10;;
16075;SDS011;8142;48.242;11.644;2023-04-25T04:23:23;3.50;;;2.27;;
16075;SDS011;8142;48.242;11.644;2023-04-25T04:25:49;5.73;;;2.50;;
16075;SDS011;8142;48.242;11.644;2023-04-25T04:28:15;4.00;;;2.30;;
16075;SDS011;8142;48.242;11.644;2023-04-25T04:30:41;2.67;;;2.10;;
16075;SDS011;8142;48.242;11.644;2023-04-25T04:33:08;2.97;;;2.00;;
16075;SDS011;8142;48.242;11.644;2023-04-25T04:35:34;2.53;;;1.90;;
16075;SDS011;8142;48.242;11.644;2023-04-25T04:38:00;3.53;;;2.27;;
16075;SDS011;8142;48.242;11.644;2023-04-25T04:40:26;2.27;;;1.73;;
16075;SDS011;8142;48.242;11.644;2023-04-25T04:42:52;3.33;;;2.10;;
16075;SDS011;8142;48.242;11.644;2023-04-25T04:45:19;2.53;;;2.03;;
16075;SDS011;8142;48.242;11.644;2023-04-25T04:47:46;2.67;;;2.30;;
16075;SDS011;8142;48.242;11.644;2023-04-25T04:50:13;2.90;;;2.10;;
16075;SDS011;8142;48.242;11.644;2023-04-25T04:52:40;2.30;;;2.00;;
16075;SDS011;8142;48.242;11.644;2023-04-25T04:55:06;3.27;;;2.10;;
16075;SDS011;8142;48.242;11.644;2023-04-25T04:57:33;2.20;;;2.00;;
16075;SDS011;8142;48.242;11.644;2023-04-25T05:00:00;2.77;;;1.80;;
16075;SDS011;8142;48.242;11.644;2023-04-25T05:02:26;2.03;;;1.70;;
16075;SDS011;8142;48.242;11.644;2023-04-25T05:04:53;1.87;;;1.70;;
16075;SDS011;8142;48.242;11.644;2023-04-25T05:07:21;2.43;;;1.67;;
16075;SDS011;8142;48.242;11.644;2023-04-25T05:09:47;2.87;;;1.80;;
16075;SDS011;8142;48.242;11.644;2023-04-25T05:12:13;2.83;;;1.70;;
16075;SDS011;8142;48.242;11.644;2023-04-25T05:14:39;2.70;;;1.90;;
16075;SDS011;8142;48.242;11.644;2023-04-25T05:17:05;3.50;;;1.60;;
16075;SDS011;8142;48.242;11.644;2023-04-25T05:19:33;2.43;;;1.77;;
16075;SDS011;8142;48.242;11.644;2023-04-25T05:22:00;2.13;;;1.70;;
16075;SDS011;8142;48.242;11.644;2023-04-25T05:24:25;2.17;;;1.70;;
16075;SDS011;8142;48.242;11.644;2023-04-25T05:26:51;2.57;;;1.90;;
16075;SDS011;8142;48.242;11.644;2023-04-25T05:29:18;3.80;;;1.80;;
16075;SDS011;8142;48.242;11.644;2023-04-25T05:31:44;3.63;;;2.00;;
16075;SDS011;8142;48.242;11.644;2023-04-25T05:34:10;2.80;;;2.23;;
16075;SDS011;8142;48.242;11.644;2023-04-25T05:36:36;3.03;;;1.97;;
16075;SDS011;8142;48.242;11.644;2023-04-25T05:39:02;3.57;;;2.17;;
16075;SDS011;8142;48.242;11.644;2023-04-25T05:41:29;2.27;;;1.90;;
16075;SDS011;8142;48.242;11.644;2023-04-25T05:43:55;3.33;;;2.20;;
16075;SDS011;8142;48.242;11.644;2023-04-25T05:46:21;2.20;;;2.00;;
16075;SDS011;8142;48.242;11.644;2023-04-25T05:48:47;3.90;;;2.27;;
16075;SDS011;8142;48.242;11.644;2023-04-25T05:51:12;2.67;;;2.10;;
16075;SDS011;8142;48.242;11.644;2023-04-25T05:53:38;3.67;;;2.30;;
16075;SDS011;8142;48.242;11.644;2023-04-25T05:56:04;4.07;;;2.30;;
16075;SDS011;8142;48.242;11.644;2023-04-25T05:58:30;2.83;;;2.20;;
16075;SDS011;8142;48.242;11.644;2023-04-25T06:00:56;5.30;;;2.20;;
16075;SDS011;8142;48.242;11.644;2023-04-25T06:03:22;4.00;;;2.10;;
16075;SDS011;8142;48.242;11.644;2023-04-25T06:05:48;5.17;;;2.40;;
16075;SDS011;8142;48.242;11.644;2023-04-25T06:08:13;4.10;;;2.20;;
16075;SDS011;8142;48.242;11.644;2023-04-25T06:10:39;5.37;;;2.70;;
16075;SDS011;8142;48.242;11.644;2023-04-25T06:13:05;4.03;;;2.53;;
16075;SDS011;8142;48.242;11.644;2023-04-25T06:15:31;5.00;;;2.60;;
16075;SDS011;8142;48.242;11.644;2023-04-25T06:18:00;4.40;;;2.70;;
16075;SDS011;8142;48.242;11.644;2023-04-25T06:20:26;4.77;;;2.60;;
16075;SDS011;8142;48.242;11.644;2023-04-25T06:22:51;4.93;;;2.80;;
16075;SDS011;8142;48.242;11.644;2023-04-25T06:25:17;6.70;;;2.80;;
16075;SDS011;8142;48.242;11.644;2023-04-25T06:27:43;5.87;;;2.93;;
16075;SDS011;8142;48.242;11.644;2023-04-25T06:30:09;7.00;;;3.00;;
16075;SDS011;8142;48.242;11.644;2023-04-25T06:32:37;4.73;;;2.50;;
16075;SDS011;8142;48.242;11.644;2023-04-25T06:35:04;4.30;;;2.70;;
16075;SDS011;8142;48.242;11.644;2023-04-25T06:37:30;4.03;;;2.50;;
16075;SDS011;8142;48.242;11.644;2023-04-25T06:39:56;5.33;;;2.70;;
16075;SDS011;8142;48.242;11.644;2023-04-25T06:42:22;6.03;;;2.90;;
16075;SDS011;8142;48.242;11.644;2023-04-25T06:44:48;3.90;;;2.80;;
16075;SDS011;8142;48.242;11.644;2023-04-25T06:47:14;3.60;;;2.60;;
16075;SDS011;8142;48.242;11.644;2023-04-25T06:49:40;3.57;;;2.97;;
16075;SDS011;8142;48.242;11.644;2023-04-25T06:52:07;4.77;;;2.70;;
16075;SDS011;8142;48.242;11.644;2023-04-25T06:54:32;7.23;;;3.03;;
16075;SDS011;8142;48.242;11.644;2023-04-25T06:56:58;6.17;;;3.13;;
16075;SDS011;8142;48.242;11.644;2023-04-25T06:59:26;3.90;;;2.90;;
16075;SDS011;8142;48.242;11.644;2023-04-25T07:01:52;5.43;;;3.00;;
16075;SDS011;8142;48.242;11.644;2023-04-25T07:04:17;6.30;;;2.73;;
16075;SDS011;8142;48.242;11.644;2023-04-25T07:06:43;4.60;;;2.80;;
16075;SDS011;8142;48.242;11.644;2023-04-25T07:09:10;8.87;;;3.37;;
16075;SDS011;8142;48.242;11.644;2023-04-25T07:11:36;4.43;;;3.00;;
16075;SDS011;8142;48.242;11.644;2023-04-25T07:14:02;3.57;;;3.10;;
16075;SDS011;8142;48.242;11.644;2023-04-25T07:16:28;4.80;;;3.10;;
16075;SDS011;8142;48.242;11.644;2023-04-25T07:18:54;4.33;;;2.80;;
16075;SDS011;8142;48.242;11.644;2023-04-25T07:21:20;4.63;;;2.80;;
16075;SDS011;8142;48.242;11.644;2023-04-25T07:23:46;5.77;;;2.97;;
16075;SDS011;8142;48.242;11.644;2023-04-25T07:26:12;4.83;;;2.80;;
16075;SDS011;8142;48.242;11.644;2023-04-25T07:28:38;4.43;;;2.80;;
16075;SDS011;8142;48.242;11.644;2023-04-25T07:31:04;2.70;;;2.50;;
16075;SDS011;8142;48.242;11.644;2023-04-25T07:33:30;6.47;;;3.00;;
16075;SDS011;8142;48.242;11.644;2023-04-25T07:35:56;4.67;;;2.67;;
16075;SDS011;8142;48.242;11.644;2023-04-25T07:38:22;4.70;;;2.50;;
16075;SDS011;8142;48.242;11.644;2023-04-25T07:40:48;5.97;;;2.90;;
16075;SDS011;8142;48.242;11.644;2023-04-25T07:43:14;3.83;;;2.80;;
16075;SDS011;8142;48.242;11.644;2023-04-25T07:45:44;3.40;;;2.70;;
16075;SDS011;8142;48.242;11.644;2023-04-25T07:48:11;4.17;;;2.77;;
16075;SDS011;8142;48.242;11.644;2023-04-25T07:50:42;3.80;;;2.83;;
16075;SDS011;8142;48.242;11.644;2023-04-25T07:53:08;3.60;;;2.50;;
16075;SDS011;8142;48.242;11.644;2023-04-25T07:55:33;4.70;;;2.93;;
16075;SDS011;8142;48.242;11.644;2023-04-25T07:58:01;4.70;;;2.60;;
16075;SDS011;8142;48.242;11.644;2023-04-25T08:00:28;5.17;;;2.63;;
16075;SDS011;8142;48.242;11.644;2023-04-25T08:02:54;4.20;;;2.43;;
16075;SDS011;8142;48.242;11.644;2023-04-25T08:05:20;4.07;;;2.40;;
16075;SDS011;8142;48.242;11.644;2023-04-25T08:07:46;3.03;;;2.23;;
16075;SDS011;8142;48.242;11.644;2023-04-25T08:10:12;2.93;;;1.83;;
16075;SDS011;8142;48.242;11.644;2023-04-25T08:12:38;4.67;;;2.40;;
16075;SDS011;8142;48.242;11.644;2023-04-25T08:15:04;4.27;;;2.37;;
16075;SDS011;8142;48.242;11.644;2023-04-25T08:17:31;4.67;;;2.13;;
16075;SDS011;8142;48.242;11.644;2023-04-25T08:19:57;4.23;;;2.30;;
16075;SDS011;8142;48.242;11.644;2023-04-25T08:22:23;2.37;;;2.17;;
16075;SDS011;8142;48.242;11.644;2023-04-25T08:24:49;3.27;;;2.10;;
16075;SDS011;8142;48.242;11.644;2023-04-25T08:27:15;3.13;;;2.10;;
16075;SDS011;8142;48.242;11.644;2023-04-25T08:29:41;4.07;;;2.50;;
16075;SDS011;8142;48.242;11.644;2023-04-25T08:32:07;4.70;;;2.20;;
16075;SDS011;8142;48.242;11.644;2023-04-25T08:34:33;2.73;;;2.00;;
16075;SDS011;8142;48.242;11.644;2023-04-25T08:36:59;5.07;;;2.30;;
16075;SDS011;8142;48.242;11.644;2023-04-25T08:39:25;3.20;;;2.07;;
16075;SDS011;8142;48.242;11.644;2023-04-25T08:41:51;3.33;;;2.30;;
16075;SDS011;8142;48.242;11.644;2023-04-25T08:44:18;3.47;;;2.23;;
16075;SDS011;8142;48.242;11.644;2023-04-25T08:46:45;2.80;;;1.90;;
16075;SDS011;8142;48.242;11.644;2023-04-25T08:49:15;2.17;;;1.97;;
16075;SDS011;8142;48.242;11.644;2023-04-25T08:51:46;3.40;;;1.83;;
16075;SDS011;8142;48.242;11.644;2023-04-25T08:54:13;3.87;;;1.90;;
16075;SDS011;8142;48.242;11.644;2023-04-25T08:56:47;4.70;;;2.03;;
16075;SDS011;8142;48.242;11.644;2023-04-25T08:59:13;3.77;;;1.90;;
16075;SDS011;8142;48.242;11.644;2023-04-25T09:01:39;2.57;;;1.80;;
16075;SDS011;8142;48.242;11.644;2023-04-25T09:04:05;2.77;;;1.77;;
16075;SDS011;8142;48.242;11.644;2023-04-25T09:06:31;2.80;;;1.70;;
16075;SDS011;8142;48.242;11.644;2023-04-25T09:09:03;2.30;;;2.10;;
16075;SDS011;8142;48.242;11.644;2023-04-25T09:11:30;2.43;;;1.80;;
16075;SDS011;8142;48.242;11.644;2023-04-25T09:14:13;3.80;;;1.97;;
16075;SDS011;8142;48.242;11.644;2023-04-25T09:19:22;5.73;;;2.07;;
16075;SDS011;8142;48.242;11.644;2023-04-25T09:21:49;4.43;;;1.90;;
16075;SDS011;8142;48.242;11.644;2023-04-25T09:24:15;1.93;;;1.77;;
16075;SDS011;8142;48.242;11.644;2023-04-25T09:26:41;2.07;;;1.80;;
16075;SDS011;8142;48.242;11.644;2023-04-25T09:29:09;2.20;;;1.50;;
16075;SDS011;8142;48.242;11.644;2023-04-25T09:31:36;3.37;;;1.90;;
16075;SDS011;8142;48.242;11.644;2023-04-25T09:34:01;2.87;;;1.83;;
16075;SDS011;8142;48.242;11.644;2023-04-25T09:36:29;4.40;;;1.70;;
16075;SDS011;8142;48.242;11.644;2023-04-25T09:38:55;4.80;;;1.70;;
16075;SDS011;8142;48.242;11.644;2023-04-25T09:41:24;2.87;;;1.90;;
16075;SDS011;8142;48.242;11.644;2023-04-25T09:43:50;2.00;;;1.63;;
16075;SDS011;8142;48.242;11.644;2023-04-25T09:46:16;5.33;;;1.87;;
16075;SDS011;8142;48.242;11.644;2023-04-25T09:48:50;2.67;;;1.60;;
16075;SDS011;8142;48.242;11.644;2023-04-25T09:51:16;2.83;;;1.90;;
16075;SDS011;8142;48.242;11.644;2023-04-25T09:53:45;13.67;;;2.53;;
16075;SDS011;8142;48.242;11.644;2023-04-25T09:56:15;3.43;;;1.90;;
16075;SDS011;8142;48.242;11.644;2023-04-25T09:58:42;1.97;;;1.60;;
16075;SDS011;8142;48.242;11.644;2023-04-25T10:01:10;2.17;;;1.70;;
16075;SDS011;8142;48.242;11.644;2023-04-25T10:03:37;2.53;;;1.67;;
16075;SDS011;8142;48.242;11.644;2023-04-25T10:06:08;3.57;;;1.90;;
16075;SDS011;8142;48.242;11.644;2023-04-25T10:08:38;3.40;;;1.80;;
16075;SDS011;8142;48.242;11.644;2023-04-25T10:11:04;2.00;;;1.77;;
16075;SDS011;8142;48.242;11.644;2023-04-25T10:13:32;1.60;;;1.50;;
16075;SDS011;8142;48.242;11.644;2023-04-25T10:15:59;2.97;;;1.67;;
16075;SDS011;8142;48.242;11.644;2023-04-25T10:18:28;1.80;;;1.70;;
16075;SDS011;8142;48.242;11.644;2023-04-25T10:20:55;2.07;;;1.60;;
16075;SDS011;8142;48.242;11.644;2023-04-25T10:23:23;3.40;;;1.90;;
16075;SDS011;8142;48.242;11.644;2023-04-25T10:25:50;3.93;;;1.90;;
16075;SDS011;8142;48.242;11.644;2023-04-25T10:28:17;3.03;;;2.00;;
16075;SDS011;8142;48.242;11.644;2023-04-25T10:38:35;1.60;;;1.50;;
16075;SDS011;8142;48.242;11.644;2023-04-25T10:41:07;2.03;;;1.60;;
16075;SDS011;8142;48.242;11.644;2023-04-25T10:43:35;2.50;;;1.80;;
16075;SDS011;8142;48.242;11.644;2023-04-25T10:46:18;3.67;;;1.60;;
16075;SDS011;8142;48.242;11.644;2023-04-25T10:48:45;4.60;;;2.00;;
16075;SDS011;8142;48.242;11.644;2023-04-25T10:51:18;2.73;;;1.70;;
16075;SDS011;8142;48.242;11.644;2023-04-25T10:56:28;2.07;;;1.30;;
16075;SDS011;8142;48.242;11.644;2023-04-25T10:59:10;1.23;;;1.13;;
16075;SDS011;8142;48.242;11.644;2023-04-25T11:01:37;2.00;;;0.80;;
16075;SDS011;8142;48.242;11.644;2023-04-25T11:09:32;1.10;;;1.10;;
16075;SDS011;8142;48.242;11.644;2023-04-25T11:11:58;2.27;;;1.30;;
16075;SDS011;8142;48.242;11.644;2023-04-25T11:14:26;2.70;;;1.30;;
16075;SDS011;8142;48.242;11.644;2023-04-25T11:16:55;2.60;;;1.80;;
16075;SDS011;8142;48.242;11.644;2023-04-25T11:19:25;2.43;;;1.80;;
16075;SDS011;8142;48.242;11.644;2023-04-25T11:21:54;4.73;;;2.07;;
16075;SDS011;8142;48.242;11.644;2023-04-25T11:24:27;16.87;;;2.90;;
16075;SDS011;8142;48.242;11.644;2023-04-25T11:27:01;1.57;;;1.43;;
16075;SDS011;8142;48.242;11.644;2023-04-25T11:29:31;1.57;;;1.47;;
16075;SDS011;8142;48.242;11.644;2023-04-25T11:31:58;1.87;;;1.57;;
16075;SDS011;8142;48.242;11.644;2023-04-25T11:34:29;1.80;;;1.50;;
16075;SDS011;8142;48.242;11.644;2023-04-25T11:36:56;2.03;;;1.47;;
16075;SDS011;8142;48.242;11.644;2023-04-25T11:39:26;4.43;;;1.97;;
16075;SDS011;8142;48.242;11.644;2023-04-25T11:41:53;2.40;;;1.80;;
16075;SDS011;8142;48.242;11.644;2023-04-25T11:44:19;2.27;;;1.70;;
16075;SDS011;8142;48.242;11.644;2023-04-25T11:46:46;1.40;;;1.30;;
16075;SDS011;8142;48.242;11.644;2023-04-25T11:49:12;2.57;;;1.57;;
16075;SDS011;8142;48.242;11.644;2023-04-25T11:51:39;2.50;;;1.80;;
16075;SDS011;8142;48.242;11.644;2023-04-25T11:54:06;2.67;;;1.80;;
16075;SDS011;8142;48.242;11.644;2023-04-25T11:56:33;1.97;;;1.73;;
16075;SDS011;8142;48.242;11.644;2023-04-25T11:59:05;2.97;;;1.80;;
16075;SDS011;8142;48.242;11.644;2023-04-25T12:01:32;3.70;;;2.03;;
16075;SDS011;8142;48.242;11.644;2023-04-25T12:04:09;3.73;;;2.10;;
16075;SDS011;8142;48.242;11.644;2023-04-25T12:06:43;3.40;;;2.20;;
16075;SDS011;8142;48.242;11.644;2023-04-25T12:09:14;3.73;;;1.90;;
16075;SDS011;8142;48.242;11.644;2023-04-25T12:11:54;2.20;;;2.00;;
16075;SDS011;8142;48.242;11.644;2023-04-25T12:14:21;2.60;;;1.97;;
16075;SDS011;8142;48.242;11.644;2023-04-25T12:16:55;1.63;;;1.53;;
16075;SDS011;8142;48.242;11.644;2023-04-25T12:19:23;2.27;;;1.80;;
16075;SDS011;8142;48.242;11.644;2023-04-25T12:21:49;3.27;;;1.57;;
16075;SDS011;8142;48.242;11.644;2023-04-25T12:24:16;2.40;;;1.50;;
16075;SDS011;8142;48.242;11.644;2023-04-25T12:26:48;1.53;;;1.43;;
16075;SDS011;8142;48.242;11.644;2023-04-25T12:29:19;2.40;;;1.37;;
16075;SDS011;8142;48.242;11.644;2023-04-25T12:31:50;2.17;;;1.40;;
16075;SDS011;8142;48.242;11.644;2023-04-25T12:34:17;1.83;;;1.40;;
16075;SDS011;8142;48.242;11.644;2023-04-25T12:36:47;2.30;;;1.60;;
16075;SDS011;8142;48.242;11.644;2023-04-25T12:39:15;2.33;;;1.70;;
16075;SDS011;8142;48.242;11.644;2023-04-25T12:41:41;2.27;;;1.60;;
16075;SDS011;8142;48.242;11.644;2023-04-25T12:44:07;2.50;;;1.60;;
16075;SDS011;8142;48.242;11.644;2023-04-25T12:46:33;1.70;;;1.60;;
16075;SDS011;8142;48.242;11.644;2023-04-25T12:48:58;1.70;;;1.47;;
16075;SDS011;8142;48.242;11.644;2023-04-25T12:51:25;2.27;;;1.73;;
16075;SDS011;8142;48.242;11.644;2023-04-25T12:53:53;2.53;;;1.60;;
16075;SDS011;8142;48.242;11.644;2023-04-25T12:56:19;1.60;;;1.50;;
16075;SDS011;8142;48.242;11.644;2023-04-25T12:58:45;1.47;;;1.37;;
16075;SDS011;8142;48.242;11.644;2023-04-25T13:01:11;1.83;;;1.63;;
16075;SDS011;8142;48.242;11.644;2023-04-25T13:03:39;1.83;;;1.70;;
16075;SDS011;8142;48.242;11.644;2023-04-25T13:06:06;1.70;;;1.60;;
16075;SDS011;8142;48.242;11.644;2023-04-25T13:08:32;1.77;;;1.67;;
16075;SDS011;8142;48.242;11.644;2023-04-25T13:10:58;2.13;;;1.50;;
16075;SDS011;8142;48.242;11.644;2023-04-25T13:13:24;1.87;;;1.43;;
16075;SDS011;8142;48.242;11.644;2023-04-25T13:15:50;1.43;;;1.17;;
16075;SDS011;8142;48.242;11.644;2023-04-25T13:18:16;1.80;;;1.20;;
16075;SDS011;8142;48.242;11.644;2023-04-25T13:20:41;1.73;;;1.43;;
16075;SDS011;8142;48.242;11.644;2023-04-25T13:23:07;3.57;;;1.53;;
16075;SDS011;8142;48.242;11.644;2023-04-25T13:25:33;1.70;;;1.50;;
16075;SDS011;8142;48.242;11.644;2023-04-25T13:27:59;1.40;;;1.00;;
16075;SDS011;8142;48.242;11.644;2023-04-25T13:30:25;2.93;;;1.00;;
16075;SDS011;8142;48.242;11.644;2023-04-25T13:32:51;1.13;;;0.90;;
16075;SDS011;8142;48.242;11.644;2023-04-25T13:35:17;1.00;;;0.90;;
16075;SDS011;8142;48.242;11.644;2023-04-25T13:37:43;1.67;;;1.20;;
16075;SDS011;8142;48.242;11.644;2023-04-25T13:40:10;1.23;;;1.10;;
16075;SDS011;8142;48.242;11.644;2023-04-25T13:42:37;2.30;;;1.00;;
16075;SDS011;8142;48.242;11.644;2023-04-25T13:45:04;1.37;;;1.27;;
16075;SDS011;8142;48.242;11.644;2023-04-25T13:47:30;2.30;;;1.10;;
16075;SDS011;8142;48.242;11.644;2023-04-25T13:49:56;2.27;;;1.20;;
16075;SDS011;8142;48.242;11.644;2023-04-25T13:52:22;2.30;;;1.13;;
16075;SDS011;8142;48.242;11.644;2023-04-25T13:54:52;2.80;;;1.20;;
16075;SDS011;8142;48.242;11.644;2023-04-25T13:57:18;1.53;;;1.10;;
16075;SDS011;8142;48.242;11.644;2023-04-25T13:59:44;0.93;;;0.93;;
16075;SDS011;8142;48.242;11.644;2023-04-25T14:02:11;0.90;;;0.90;;
16075;SDS011;8142;48.242;11.644;2023-04-25T14:04:37;1.60;;;0.80;;
16075;SDS011;8142;48.242;11.644;2023-04-25T14:07:03;1.63;;;0.90;;
16075;SDS011;8142;48.242;11.644;2023-04-25T14:09:30;1.10;;;1.00;;
16075;SDS011;8142;48.242;11.644;2023-04-25T14:11:56;1.73;;;1.00;;
16075;SDS011;8142;48.242;11.644;2023-04-25T14:14:22;1.33;;;1.00;;
16075;SDS011;8142;48.242;11.644;2023-04-25T14:16:49;2.13;;;1.27;;
16075;SDS011;8142;48.242;11.644;2023-04-25T14:19:19;2.17;;;1.30;;
16075;SDS011;8142;48.242;11.644;2023-04-25T14:21:45;1.13;;;1.10;;
16075;SDS011;8142;48.242;11.644;2023-04-25T14:24:12;2.47;;;1.30;;
16075;SDS011;8142;48.242;11.644;2023-04-25T14:26:39;1.37;;;1.23;;
16075;SDS011;8142;48.242;11.644;2023-04-25T14:29:06;1.50;;;1.40;;
16075;SDS011;8142;48.242;11.644;2023-04-25T14:31:32;1.40;;;1.30;;
16075;SDS011;8142;48.242;11.644;2023-04-25T14:33:59;1.40;;;1.30;;
16075;SDS011;8142;48.242;11.644;2023-04-25T14:36:25;2.47;;;1.47;;
16075;SDS011;8142;48.242;11.644;2023-04-25T14:38:53;2.27;;;1.57;;
16075;SDS011;8142;48.242;11.644;2023-04-25T14:41:19;1.57;;;1.40;;
16075;SDS011;8142;48.242;11.644;2023-04-25T14:43:44;1.73;;;1.30;;
16075;SDS011;8142;48.242;11.644;2023-04-25T14:46:10;1.53;;;1.43;;
16075;SDS011;8142;48.242;11.644;2023-04-25T14:48:37;1.70;;;1.60;;
16075;SDS011;8142;48.242;11.644;2023-04-25T14:51:03;1.60;;;1.50;;
16075;SDS011;8142;48.242;11.644;2023-04-25T14:53:30;1.50;;;1.40;;
16075;SDS011;8142;48.242;11.644;2023-04-25T14:55:56;1.70;;;1.60;;
16075;SDS011;8142;48.242;11.644;2023-04-25T14:58:22;1.50;;;1.40;;
16075;SDS011;8142;48.242;11.644;2023-04-25T15:00:48;1.53;;;1.43;;
16075;SDS011;8142;48.242;11.644;2023-04-25T15:03:14;1.37;;;1.27;;
16075;SDS011;8142;48.242;11.644;2023-04-25T15:05:42;2.97;;;1.70;;
16075;SDS011;8142;48.242;11.644;2023-04-25T15:08:08;1.60;;;1.43;;
16075;SDS011;8142;48.242;11.644;2023-04-25T15:10:34;1.90;;;1.57;;
16075;SDS011;8142;48.242;11.644;2023-04-25T15:13:00;2.43;;;1.67;;
16075;SDS011;8142;48.242;11.644;2023-04-25T15:15:26;1.40;;;1.30;;
16075;SDS011;8142;48.242;11.644;2023-04-25T15:17:52;2.57;;;1.43;;
16075;SDS011;8142;48.242;11.644;2023-04-25T15:20:21;1.60;;;1.27;;
16075;SDS011;8142;48.242;11.644;2023-04-25T15:22:47;1.43;;;1.23;;
16075;SDS011;8142;48.242;11.644;2023-04-25T15:25:14;1.00;;;1.00;;
16075;SDS011;8142;48.242;11.644;2023-04-25T15:27:43;1.30;;;1.20;;
16075;SDS011;8142;48.242;11.644;2023-04-25T15:30:10;1.23;;;1.23;;
16075;SDS011;8142;48.242;11.644;2023-04-25T15:32:40;1.40;;;1.30;;
16075;SDS011;8142;48.242;11.644;2023-04-25T15:35:06;1.60;;;1.50;;
16075;SDS011;8142;48.242;11.644;2023-04-25T15:37:33;1.97;;;1.80;;
16075;SDS011;8142;48.242;11.644;2023-04-25T15:40:07;2.43;;;1.93;;
16075;SDS011;8142;48.242;11.644;2023-04-25T15:42:38;3.47;;;2.20;;
16075;SDS011;8142;48.242;11.644;2023-04-25T15:45:07;2.73;;;1.90;;
16075;SDS011;8142;48.242;11.644;2023-04-25T15:47:35;2.20;;;2.00;;
16075;SDS011;8142;48.242;11.644;2023-04-25T15:50:02;2.20;;;2.00;;
16075;SDS011;8142;48.242;11.644;2023-04-25T15:52:31;2.63;;;2.43;;
16075;SDS011;8142;48.242;11.644;2023-04-25T15:54:57;2.50;;;2.30;;
16075;SDS011;8142;48.242;11.644;2023-04-25T15:57:23;2.83;;;2.50;;
16075;SDS011;8142;48.242;11.644;2023-04-25T15:59:49;3.33;;;2.60;;
16075;SDS011;8142;48.242;11.644;2023-04-25T16:02:15;2.60;;;2.40;;
16075;SDS011;8142;48.242;11.644;2023-04-25T16:04:42;3.60;;;2.50;;